Startpagina
METAR-TAF:

METAR-TAF

Vliegvelden :

Flughafen Dortmund

Dortmund, Duitsland

breedte: 51-31N, lengte: 007-37E, hoogte: 127 m

Actueel weer

Dit bericht is 30 minuten geleden gemaakt, om 07:20 UTC
Wind 9 kt uit het zuidzuidwesten
Temperatuur 12°C
Vochtigheid 88%
Druk 1010 hPa
Zicht 10 km of meer
Weinig wolken op 1500 ft
Gebroken wolken op 2100 ft

METAR: EDLW 160720Z 21009KT 9999 FEW015 BKN021 12/10 Q1010

Tijdstip: 09:50 (07:50 UTC)

Verwachting

Dit bericht is 2 uur en het 50 minuten geleden gemaakt, om 05:00 UTC
Verwachting geldig van 16 om 06 UTC tot 17 om 06 UTC
Wind 12 kt uit het zuiden
Zicht 10 km of meer
Gebroken wolken op 3500 ft
Tijdelijke
van 16 om 12 UTC tot 16 om 20 UTC
Wind 15 kt uit het zuidwesten met uitschieters tot 25 kt
Tijdelijke
van 16 om 23 UTC tot 17 om 05 UTC
Zicht: 4000 m
Gebroken wolken op 1200 ft
motregen, regen

TAF: EDLW 160500Z 1606/1706 19012KT 9999 BKN035 TEMPO 1612/1620 23015G25KT TEMPO 1623/1705 4000 DZRA BKN012

Waarnemingen en weersverwachtingen van meer dan 4000 vliegvelden (METAR en TAF).

De beschikbare stations zijn de gele en rode punten op de kaart.

Ga met uw muis naar het station om de naam te zien.

Klik dan om waarnemingen en weersverwachtingen te zien.

kaart wijzigen: klik op de groene knoppen met een zwart kruis om in te zoomen, op de groene knop met een streepje om uit te zoomen of op de groene pijlen voor aangrenzende kaarten.


METAR-TAF: